Time;durP1;ratioP1;P1;durP2;ratioP2;P2;SDS_P1;SDS_P2;PMS_P1;PMS_P2;Temp;Humidity;BMP_temperature;BMP_pressure;BME280_temperature;BME280_humidity;BME280_pressure;Samples;Min_cycle;Max_cycle;Signal;HPM_P1;HPM_P2
2021/01/21 00:02:06;;;;;;;4.43;1.83;;;22.90;45.20;;;;;;5110049;27;45341;-59
2021/01/21 00:04:32;;;;;;;4.75;2.58;;;22.90;45.20;;;;;;5094155;27;45339;-59
2021/01/21 00:06:58;;;;;;;3.92;2.22;;;22.90;45.20;;;;;;5110301;27;45354;-59
2021/01/21 00:09:23;;;;;;;6.60;2.75;;;22.90;45.20;;;;;;5093530;27;45417;-59
2021/01/21 00:11:49;;;;;;;4.25;2.50;;;22.80;45.10;;;;;;5093561;27;45314;-60
2021/01/21 00:14:15;;;;;;;4.40;2.10;;;22.80;45.10;;;;;;5094001;27;45510;-60
2021/01/21 00:16:41;;;;;;;4.72;2.67;;;22.80;45.10;;;;;;5089435;27;45913;-60
2021/01/21 00:19:06;;;;;;;4.60;2.53;;;22.80;45.20;;;;;;5089935;27;45346;-60
2021/01/21 00:21:32;;;;;;;4.53;2.38;;;22.80;45.10;;;;;;5090183;27;45339;-60
2021/01/21 00:23:58;;;;;;;4.00;2.30;;;22.80;45.10;;;;;;5090164;28;45584;-60
2021/01/21 00:26:27;;;;;;;4.93;2.30;;;22.70;45.10;;;;;;5089740;27;46110;-60
2021/01/21 00:28:54;;;;;;;4.93;2.60;;;22.80;45.10;;;;;;5089732;28;45322;-60
2021/01/21 00:31:19;;;;;;;4.68;2.30;;;22.80;45.20;;;;;;5089683;27;45232;-60
2021/01/21 00:33:45;;;;;;;5.05;2.38;;;22.70;45.10;;;;;;5090377;27;45472;-60
2021/01/21 00:36:12;;;;;;;4.35;2.33;;;22.70;45.10;;;;;;5089550;27;46249;-60
2021/01/21 00:38:38;;;;;;;4.55;2.20;;;22.70;45.10;;;;;;5089029;27;45472;-59
2021/01/21 00:41:04;;;;;;;7.10;2.70;;;22.70;45.00;;;;;;5089676;28;45298;-59
2021/01/21 00:43:30;;;;;;;4.72;2.47;;;22.70;45.00;;;;;;5090124;27;45295;-59
2021/01/21 00:45:56;;;;;;;4.75;2.33;;;22.70;45.00;;;;;;5089395;27;46275;-59
2021/01/21 00:48:22;;;;;;;4.63;2.20;;;22.70;45.00;;;;;;5089331;28;45353;-59
2021/01/21 00:50:48;;;;;;;4.38;2.35;;;22.60;45.00;;;;;;5089657;27;45392;-59
2021/01/21 00:53:13;;;;;;;3.90;1.92;;;22.60;45.00;;;;;;5089744;28;45389;-59
2021/01/21 00:55:39;;;;;;;4.28;2.20;;;22.60;45.00;;;;;;5088915;28;46310;-59
2021/01/21 00:58:05;;;;;;;3.28;1.45;;;22.60;44.90;;;;;;5089245;28;45281;-59
2021/01/21 01:00:30;;;;;;;4.32;2.45;;;22.60;44.90;;;;;;5089251;28;45350;-59
2021/01/21 01:02:56;;;;;;;4.15;2.10;;;22.60;44.90;;;;;;5089511;28;45525;-59
2021/01/21 01:05:22;;;;;;;5.07;2.10;;;22.60;44.90;;;;;;5089010;28;46315;-59
2021/01/21 01:07:48;;;;;;;4.18;1.95;;;22.60;44.90;;;;;;5106153;27;45325;-59
2021/01/21 01:10:13;;;;;;;3.38;1.95;;;22.60;44.90;;;;;;5089141;28;45242;-60
2021/01/21 01:12:39;;;;;;;3.95;2.17;;;22.60;44.90;;;;;;5089161;27;45378;-59
2021/01/21 01:15:06;;;;;;;4.20;2.40;;;22.60;44.90;;;;;;5089049;28;45872;-59
2021/01/21 01:17:32;;;;;;;4.90;2.20;;;22.60;44.80;;;;;;5087880;28;45353;-60
2021/01/21 01:19:57;;;;;;;4.97;2.35;;;22.60;44.80;;;;;;5088720;28;45389;-59
2021/01/21 01:22:23;;;;;;;4.20;1.90;;;22.50;45.40;;;;;;5092411;27;45368;-59
2021/01/21 01:24:49;;;;;;;4.05;2.22;;;22.50;44.80;;;;;;5091811;27;46311;-58
2021/01/21 01:27:14;;;;;;;4.55;2.17;;;22.50;44.80;;;;;;5091986;27;45299;-59
2021/01/21 01:29:40;;;;;;;4.28;1.98;;;22.50;44.80;;;;;;5092407;27;45259;-59
2021/01/21 01:32:06;;;;;;;3.92;1.58;;;22.50;44.80;;;;;;5092738;27;45488;-58
2021/01/21 01:34:31;;;;;;;3.60;1.73;;;22.50;44.80;;;;;;5092071;27;45472;-59
2021/01/21 01:36:57;;;;;;;4.70;2.42;;;22.50;44.80;;;;;;5092334;27;45477;-60
2021/01/21 01:39:23;;;;;;;3.13;1.60;;;22.40;44.70;;;;;;5091689;27;45159;-60
2021/01/21 01:41:48;;;;;;;3.15;1.88;;;22.50;44.80;;;;;;5092648;27;45637;-60
2021/01/21 01:44:14;;;;;;;4.40;1.70;;;22.50;44.80;;;;;;5091790;27;46209;-60
2021/01/21 01:46:40;;;;;;;3.67;2.03;;;22.50;44.80;;;;;;5092056;27;45606;-61
2021/01/21 01:49:05;;;;;;;3.95;1.88;;;22.40;44.70;;;;;;5092061;27;45381;-60
2021/01/21 01:51:31;;;;;;;3.72;1.80;;;22.40;44.70;;;;;;5092259;27;45413;-59
2021/01/21 01:54:00;;;;;;;3.67;1.98;;;22.40;44.70;;;;;;5091575;27;45321;-60
2021/01/21 01:56:26;;;;;;;4.82;1.70;;;22.50;44.70;;;;;;5109147;27;45337;-59
2021/01/21 01:58:52;;;;;;;4.65;2.13;;;22.40;44.70;;;;;;5091756;27;45266;-58
2021/01/21 02:01:18;;;;;;;3.25;1.98;;;22.40;44.70;;;;;;5092332;27;45273;-59
2021/01/21 02:03:44;;;;;;;4.35;2.00;;;22.40;44.70;;;;;;5091748;27;45350;-59
2021/01/21 02:06:09;;;;;;;3.47;2.00;;;22.40;44.60;;;;;;5091657;27;45341;-59
2021/01/21 02:08:35;;;;;;;5.55;2.33;;;22.40;44.60;;;;;;5108682;27;45544;-60
2021/01/21 02:11:04;;;;;;;3.17;1.70;;;22.40;44.60;;;;;;5092366;27;45554;-60
2021/01/21 02:13:37;;;;;;;3.47;1.75;;;22.40;44.70;;;;;;5091592;27;45989;-60
2021/01/21 02:16:24;;;;;;;3.50;1.90;;;22.40;44.60;;;;;;5108252;27;45380;-60
2021/01/21 02:19:02;;;;;;;4.30;2.42;;;22.40;44.60;;;;;;5089480;28;45328;-60
2021/01/21 02:21:34;;;;;;;3.58;1.65;;;22.30;44.60;;;;;;5089478;27;45425;-59
2021/01/21 02:24:37;;;;;;;3.60;2.00;;;22.30;44.60;;;;;;5086808;28;46145;-59
2021/01/21 02:27:06;;;;;;;2.92;1.70;;;22.30;45.10;;;;;;5088401;28;45405;-59
2021/01/21 02:29:33;;;;;;;4.68;2.33;;;22.30;44.60;;;;;;5088049;28;45260;-59
2021/01/21 02:32:08;;;;;;;3.28;1.73;;;22.30;44.60;;;;;;5088170;28;45218;-59
2021/01/21 02:34:53;;;;;;;4.90;2.40;;;22.30;44.60;;;;;;5088913;27;45632;-59
2021/01/21 02:37:26;;;;;;;4.47;1.80;;;22.30;44.60;;;;;;5087672;28;45414;-59
2021/01/21 02:40:10;;;;;;;4.75;1.80;;;22.30;44.60;;;;;;5087313;28;45243;-59
2021/01/21 02:42:46;;;;;;;4.22;1.90;;;22.30;44.50;;;;;;5088243;27;45275;-59
2021/01/21 02:45:12;;;;;;;2.83;1.63;;;22.30;44.50;;;;;;5087488;28;46108;-58
2021/01/21 02:47:38;;;;;;;3.75;1.80;;;22.30;44.60;;;;;;5087396;28;45347;-60
2021/01/21 02:50:04;;;;;;;3.42;1.95;;;22.30;44.60;;;;;;5087564;27;45260;-59
2021/01/21 02:52:36;;;;;;;3.33;1.73;;;22.30;44.50;;;;;;5094417;27;45535;-59
2021/01/21 02:55:39;;;;;;;3.00;1.70;;;22.20;44.50;;;;;;5108853;27;45318;-59
2021/01/21 02:58:24;;;;;;;4.13;2.15;;;22.20;44.50;;;;;;5108910;27;45358;-59
2021/01/21 03:00:51;;;;;;;3.60;1.83;;;22.20;44.50;;;;;;5092840;27;45290;-59
2021/01/21 03:03:18;;;;;;;3.30;1.65;;;22.20;44.50;;;;;;5091485;27;45243;-59
2021/01/21 03:05:48;;;;;;;5.20;2.15;;;22.20;44.50;;;;;;5090671;27;46371;-58
2021/01/21 03:08:14;;;;;;;3.05;1.38;;;22.20;44.40;;;;;;5090771;27;45409;-59
2021/01/21 03:10:39;;;;;;;3.55;1.85;;;22.20;44.50;;;;;;5090587;27;45514;-59
2021/01/21 03:13:05;;;;;;;3.80;1.70;;;22.30;44.50;;;;;;5091428;27;45623;-58
2021/01/21 03:15:31;;;;;;;4.30;2.13;;;22.30;44.50;;;;;;5090536;27;45341;-60
2021/01/21 03:17:56;;;;;;;2.90;1.70;;;22.30;44.40;;;;;;5089637;27;45524;-59
2021/01/21 03:20:22;;;;;;;3.67;1.85;;;22.40;44.40;;;;;;5089958;27;45235;-60
2021/01/21 03:22:48;;;;;;;3.55;2.13;;;22.40;44.30;;;;;;5091140;27;45560;-59
2021/01/21 03:25:13;;;;;;;3.65;1.70;;;22.50;44.30;;;;;;5082593;28;45560;-59
2021/01/21 03:27:39;;;;;;;4.30;1.60;;;22.50;44.20;;;;;;5086615;28;45216;-59
2021/01/21 03:30:06;;;;;;;3.45;1.70;;;22.50;44.20;;;;;;5087036;28;45331;-59
2021/01/21 03:32:32;;;;;;;2.83;1.48;;;22.50;44.10;;;;;;5087443;28;45314;-59
2021/01/21 03:34:57;;;;;;;3.80;1.90;;;22.60;44.10;;;;;;5086602;28;46025;-59
2021/01/21 03:37:23;;;;;;;3.40;1.80;;;22.60;44.00;;;;;;5086738;28;45350;-60
2021/01/21 03:39:49;;;;;;;3.53;1.63;;;22.60;44.00;;;;;;5086059;28;45320;-59
2021/01/21 03:42:14;;;;;;;3.72;1.70;;;22.70;44.00;;;;;;5087281;28;45496;-59
2021/01/21 03:44:40;;;;;;;3.58;1.83;;;22.70;43.90;;;;;;5086555;28;45300;-59
2021/01/21 03:47:06;;;;;;;3.28;1.95;;;22.70;43.90;;;;;;5086695;28;45345;-59
2021/01/21 03:49:33;;;;;;;3.70;1.48;;;22.70;43.90;;;;;;5086771;28;45370;-59
2021/01/21 03:51:59;;;;;;;2.88;1.42;;;22.80;43.90;;;;;;5088884;27;45215;-59
2021/01/21 03:54:25;;;;;;;3.60;2.17;;;22.80;43.80;;;;;;5087721;27;46544;-59
2021/01/21 03:56:51;;;;;;;3.33;1.70;;;22.80;43.80;;;;;;5072693;27;45330;-59
2021/01/21 03:59:17;;;;;;;3.33;1.60;;;22.80;43.70;;;;;;5069406;28;45365;-58
2021/01/21 04:01:42;;;;;;;3.38;1.65;;;22.80;43.70;;;;;;5073401;27;45285;-59
2021/01/21 04:04:08;;;;;;;3.08;1.42;;;22.80;43.70;;;;;;5105376;27;46159;-60
2021/01/21 04:06:34;;;;;;;3.97;1.88;;;22.80;43.60;;;;;;5089704;27;45351;-59
2021/01/21 04:08:59;;;;;;;3.25;1.63;;;22.90;43.70;;;;;;5080275;28;45335;-59
2021/01/21 04:11:25;;;;;;;3.08;1.60;;;22.90;43.70;;;;;;5070292;28;45459;-59
2021/01/21 04:13:51;;;;;;;4.35;1.67;;;22.90;43.70;;;;;;5068995;28;46447;-59
2021/01/21 04:16:17;;;;;;;3.08;1.58;;;22.90;43.70;;;;;;5087407;27;45378;-60
2021/01/21 04:18:42;;;;;;;4.05;1.88;;;23.00;43.70;;;;;;5089889;27;45378;-60
2021/01/21 04:21:08;;;;;;;3.17;1.65;;;23.00;43.70;;;;;;5097921;27;45567;-60
2021/01/21 04:23:35;;;;;;;3.45;1.65;;;23.00;43.60;;;;;;5086041;28;45298;-60
2021/01/21 04:26:01;;;;;;;2.92;1.25;;;23.00;43.60;;;;;;5102060;27;45346;-60
2021/01/21 04:28:27;;;;;;;2.97;1.52;;;23.00;43.50;;;;;;5087833;27;45449;-60
2021/01/21 04:30:53;;;;;;;4.03;1.75;;;23.10;43.60;;;;;;5086623;28;45325;-60
2021/01/21 04:33:18;;;;;;;3.75;1.70;;;23.10;43.60;;;;;;5092861;27;45383;-60
2021/01/21 04:35:44;;;;;;;4.75;1.75;;;23.10;43.50;;;;;;5089597;27;45303;-60
2021/01/21 04:38:10;;;;;;;3.45;1.65;;;23.10;43.50;;;;;;5090001;27;45384;-61
2021/01/21 04:40:36;;;;;;;2.20;1.10;;;23.20;43.50;;;;;;5089537;27;45645;-60
2021/01/21 04:43:02;;;;;;;2.67;1.35;;;23.20;43.50;;;;;;5106410;27;45533;-60
2021/01/21 04:45:27;;;;;;;3.00;1.65;;;23.20;43.50;;;;;;5089160;27;45300;-60
2021/01/21 04:47:53;;;;;;;2.50;1.40;;;23.20;43.40;;;;;;5091716;27;45372;-60
2021/01/21 04:50:19;;;;;;;3.75;1.58;;;23.20;43.40;;;;;;5093784;27;45290;-60
2021/01/21 04:52:46;;;;;;;3.47;1.55;;;23.20;43.40;;;;;;5092251;27;45891;-61
2021/01/21 04:55:16;;;;;;;4.13;1.83;;;23.20;43.40;;;;;;5108468;27;45603;-60
2021/01/21 04:57:44;;;;;;;3.10;1.23;;;23.30;43.40;;;;;;5092774;27;45406;-60
2021/01/21 05:00:10;;;;;;;3.53;1.70;;;23.30;43.40;;;;;;5102219;27;45349;-60
2021/01/21 05:02:38;;;;;;;3.42;1.48;;;23.30;43.40;;;;;;5071817;28;45886;-61
2021/01/21 05:05:06;;;;;;;3.05;1.42;;;23.30;43.30;;;;;;5072291;28;45372;-61
2021/01/21 05:07:31;;;;;;;2.42;1.23;;;23.30;43.30;;;;;;5089082;27;45399;-61
2021/01/21 05:09:57;;;;;;;2.83;1.50;;;23.30;43.30;;;;;;5108771;27;45367;-61
2021/01/21 05:12:23;;;;;;;3.15;1.45;;;23.30;43.20;;;;;;5090474;27;46625;-61
2021/01/21 05:14:49;;;;;;;3.47;1.70;;;23.40;43.30;;;;;;5090823;27;45648;-61
2021/01/21 05:17:14;;;;;;;2.72;1.50;;;23.40;43.30;;;;;;5108362;27;45352;-62
2021/01/21 05:19:40;;;;;;;3.45;1.58;;;23.40;43.30;;;;;;5109827;27;45330;-62
2021/01/21 05:22:06;;;;;;;3.30;1.80;;;23.40;43.20;;;;;;5091329;27;46393;-61
2021/01/21 05:24:31;;;;;;;4.13;1.50;;;23.40;43.20;;;;;;5107538;27;45394;-61
2021/01/21 05:26:57;;;;;;;3.33;1.40;;;23.40;43.20;;;;;;5086322;27;45459;-61
2021/01/21 05:29:23;;;;;;;3.15;1.45;;;23.50;43.20;;;;;;5091151;27;45417;-60
2021/01/21 05:31:48;;;;;;;2.60;1.20;;;23.50;43.20;;;;;;5090400;27;46651;-60
2021/01/21 05:34:17;;;;;;;3.40;1.42;;;23.50;43.80;;;;;;5090440;27;45395;-60
2021/01/21 05:36:43;;;;;;;3.25;1.52;;;23.50;43.20;;;;;;5090599;27;45409;-61
2021/01/21 05:39:09;;;;;;;3.28;1.60;;;23.50;43.20;;;;;;5090664;27;45642;-60
2021/01/21 05:41:35;;;;;;;3.42;1.55;;;23.50;43.20;;;;;;5107482;27;45523;-60
2021/01/21 05:44:05;;;;;;;2.45;1.23;;;23.50;43.10;;;;;;5073527;27;45438;-61
2021/01/21 05:46:33;;;;;;;4.20;1.60;;;23.50;43.10;;;;;;5090941;27;45932;-61
2021/01/21 05:48:59;;;;;;;4.80;1.73;;;23.60;43.10;;;;;;5088742;27;45458;-60
2021/01/21 05:51:25;;;;;;;3.40;1.50;;;23.60;43.10;;;;;;5090239;27;46047;-60
2021/01/21 05:53:54;;;;;;;2.20;1.27;;;23.60;43.10;;;;;;5090746;27;45398;-62
2021/01/21 05:56:20;;;;;;;2.45;1.50;;;23.70;43.10;;;;;;5107168;27;45417;-60
2021/01/21 05:58:45;;;;;;;4.50;1.60;;;23.70;43.00;;;;;;5090690;27;46769;-60
2021/01/21 06:01:11;;;;;;;2.72;1.35;;;23.70;43.10;;;;;;5090648;27;45603;-61
2021/01/21 06:03:37;;;;;;;6.30;1.73;;;23.70;43.00;;;;;;5090187;27;45408;-61
2021/01/21 06:06:06;;;;;;;3.25;1.40;;;23.80;43.00;;;;;;5090472;27;45506;-60
2021/01/21 06:08:37;;;;;;;3.25;1.38;;;23.80;43.00;;;;;;5082718;27;45524;-61
2021/01/21 06:11:02;;;;;;;2.97;1.42;;;23.80;43.00;;;;;;5088121;27;45311;-61
2021/01/21 06:13:28;;;;;;;3.13;1.65;;;23.80;43.00;;;;;;5090227;27;45347;-61
2021/01/21 06:15:54;;;;;;;3.78;1.33;;;23.80;43.00;;;;;;5087743;27;45434;-61
2021/01/21 06:18:20;;;;;;;2.45;1.20;;;23.80;43.00;;;;;;5087097;27;45363;-61
2021/01/21 06:20:45;;;;;;;3.10;1.38;;;23.80;43.00;;;;;;5089785;27;46494;-59
2021/01/21 06:23:12;;;;;;;3.00;1.38;;;23.80;42.90;;;;;;5101775;27;45451;-60
2021/01/21 06:25:38;;;;;;;4.38;1.90;;;23.90;42.90;;;;;;5089324;27;45418;-60
2021/01/21 06:28:04;;;;;;;3.17;1.58;;;23.80;42.80;;;;;;5089865;27;45601;-61
2021/01/21 06:30:30;;;;;;;4.35;1.67;;;23.90;42.90;;;;;;5089969;27;45902;-62
2021/01/21 06:33:08;;;;;;;2.58;1.23;;;23.90;42.80;;;;;;5106478;27;46231;-62
2021/01/21 06:35:41;;;;;;;3.45;1.48;;;23.90;42.70;;;;;;5084701;27;45492;-62
2021/01/21 06:38:13;;;;;;;3.40;1.63;;;23.90;42.70;;;;;;5098879;27;45483;-61
2021/01/21 06:40:40;;;;;;;4.05;1.52;;;24.00;42.70;;;;;;5089984;27;45312;-62
2021/01/21 06:43:16;;;;;;;4.18;1.42;;;24.00;42.70;;;;;;5076027;27;45245;-61
2021/01/21 06:45:42;;;;;;;3.65;1.60;;;24.00;42.70;;;;;;5089007;27;45339;-60
2021/01/21 06:48:09;;;;;;;3.05;1.75;;;24.10;42.60;;;;;;5071223;28;45373;-61
2021/01/21 06:50:35;;;;;;;4.47;1.60;;;24.00;42.30;;;;;;5087653;28;46146;-61
2021/01/21 06:53:04;;;;;;;3.70;2.13;;;24.00;42.20;;;;;;5058879;27;45348;-62
2021/01/21 06:55:30;;;;;;;5.03;2.03;;;24.00;42.10;;;;;;5089038;27;45474;-62
2021/01/21 06:57:56;;;;;;;9.43;2.78;;;24.00;42.00;;;;;;5091172;27;45231;-60
2021/01/21 07:00:33;;;;;;;3.20;1.70;;;24.00;42.00;;;;;;5080162;27;45486;-62
2021/01/21 07:02:59;;;;;;;6.90;1.98;;;24.10;42.00;;;;;;5107651;27;45499;-61
2021/01/21 07:05:25;;;;;;;8.63;2.13;;;24.00;42.40;;;;;;5096722;27;45480;-60
2021/01/21 07:07:58;;;;;;;5.85;2.00;;;24.10;42.00;;;;;;5083229;27;45445;-61
2021/01/21 07:10:42;;;;;;;6.70;2.58;;;24.10;41.90;;;;;;5096518;27;46970;-61
2021/01/21 07:13:18;;;;;;;8.18;2.22;;;24.20;41.90;;;;;;5098768;27;45461;-61
2021/01/21 07:15:51;;;;;;;8.07;2.60;;;24.20;42.40;;;;;;5091027;27;45526;-65
2021/01/21 07:18:19;;;;;;;7.78;2.15;;;24.30;42.40;;;;;;5065655;27;45497;-62
2021/01/21 07:21:00;;;;;;;5.18;1.95;;;24.30;42.60;;;;;;5075718;27;46169;-66
2021/01/21 07:23:44;;;;;;;5.20;2.08;;;24.40;43.40;;;;;;5103600;27;45527;-69
2021/01/21 07:26:32;;;;;;;4.10;2.13;;;24.50;42.80;;;;;;5087046;27;45444;-65
2021/01/21 07:29:04;;;;;;;4.53;1.70;;;24.60;42.80;;;;;;5079418;28;45544;-64
2021/01/21 07:31:51;;;;;;;4.50;2.22;;;24.60;42.70;;;;;;5077114;27;46097;-65
2021/01/21 07:34:29;;;;;;;4.25;1.70;;;24.70;42.70;;;;;;5096008;27;45415;-66
2021/01/21 07:37:12;;;;;;;5.15;1.73;;;24.70;42.70;;;;;;5082412;27;45547;-66
2021/01/21 07:40:08;;;;;;;7.60;1.70;;;24.80;42.70;;;;;;5091076;27;45428;-73
2021/01/21 07:42:36;;;;;;;4.85;2.10;;;24.80;42.70;;;;;;5091440;27;45512;-72
2021/01/21 07:45:06;;;;;;;4.30;1.60;;;24.90;42.70;;;;;;5098870;27;45340;-62
2021/01/21 07:47:39;;;;;;;11.13;2.75;;;24.90;42.60;;;;;;5090424;27;45496;-62
2021/01/21 07:50:18;;;;;;;7.43;3.30;;;24.90;42.10;;;;;;5084013;27;45421;-62
2021/01/21 07:52:48;;;;;;;8.23;2.10;;;24.90;41.80;;;;;;5100159;27;45528;-62
2021/01/21 07:55:14;;;;;;;5.05;2.20;;;24.80;42.00;;;;;;5087920;27;45410;-65
2021/01/21 07:57:39;;;;;;;9.07;2.35;;;24.90;42.50;;;;;;5088080;27;45315;-65
2021/01/21 08:00:09;;;;;;;4.72;2.03;;;25.00;42.20;;;;;;5087706;27;45462;-66
2021/01/21 08:02:44;;;;;;;5.93;2.67;;;25.00;42.20;;;;;;5100782;27;45434;-65
2021/01/21 08:05:10;;;;;;;;;;;25.10;42.20;;;;;;5100518;27;45630;-60
2021/01/21 08:07:51;;;;;;;6.85;2.22;;;25.10;42.30;;;;;;5103288;27;45483;-65
2021/01/21 08:10:25;;;;;;;7.72;2.33;;;25.20;42.20;;;;;;5097019;27;45651;-65
2021/01/21 08:12:54;;;;;;;4.00;1.77;;;25.20;42.30;;;;;;5102897;27;45515;-64
2021/01/21 08:15:20;;;;;;;5.82;1.88;;;25.20;42.30;;;;;;5101411;27;45327;-63
2021/01/21 08:17:47;;;;;;;5.00;2.08;;;25.20;42.20;;;;;;5088503;27;45360;-63
2021/01/21 08:20:13;;;;;;;6.15;2.38;;;25.30;42.20;;;;;;5087790;27;45369;-64
2021/01/21 08:22:51;;;;;;;6.57;2.28;;;25.30;42.20;;;;;;5090473;27;46150;-65
2021/01/21 08:25:17;;;;;;;7.47;2.50;;;25.40;42.30;;;;;;5100585;27;45936;-67
2021/01/21 08:27:44;;;;;;;8.30;2.47;;;25.40;42.20;;;;;;5102621;27;45645;-65
2021/01/21 08:30:28;;;;;;;4.38;1.70;;;25.40;42.20;;;;;;5090041;27;45643;-60
2021/01/21 08:33:01;;;;;;;5.90;1.75;;;25.50;42.30;;;;;;5099813;27;45585;-63
2021/01/21 08:35:33;;;;;;;5.63;2.58;;;25.50;42.30;;;;;;5103258;27;46513;-58
2021/01/21 08:37:59;;;;;;;5.70;2.65;;;25.50;42.10;;;;;;5102289;27;45500;-63
2021/01/21 08:40:24;;;;;;;5.88;2.00;;;25.50;41.80;;;;;;5090867;27;45347;-63
2021/01/21 08:42:51;;;;;;;4.45;1.90;;;25.50;41.50;;;;;;5085035;27;45663;-67
2021/01/21 08:45:17;;;;;;;5.97;2.15;;;25.50;41.40;;;;;;5085782;28;45390;-68
2021/01/21 08:47:50;;;;;;;4.40;1.85;;;25.60;41.50;;;;;;5085546;27;45306;-63
2021/01/21 08:50:17;;;;;;;6.03;1.85;;;25.60;41.40;;;;;;5087478;27;45496;-61
2021/01/21 08:53:02;;;;;;;6.63;1.88;;;25.70;41.40;;;;;;5104283;27;45668;-64
2021/01/21 08:55:37;;;;;;;4.15;1.90;;;25.70;41.30;;;;;;5106531;27;45358;-62
2021/01/21 08:58:03;;;;;;;;;;;25.70;41.40;;;;;;5105336;27;45383;-61
2021/01/21 09:00:29;;;;;;;4.80;2.00;;;25.70;41.40;;;;;;5095888;27;45226;-61
2021/01/21 09:02:55;;;;;;;4.05;1.65;;;25.70;42.10;;;;;;5088735;27;46268;-60
2021/01/21 09:05:21;;;;;;;3.65;2.00;;;25.70;41.50;;;;;;5087414;27;45488;-61
2021/01/21 09:07:48;;;;;;;3.55;1.95;;;25.80;41.60;;;;;;5106905;27;45470;-65
2021/01/21 09:10:14;;;;;;;4.10;2.08;;;25.80;41.60;;;;;;5103484;27;45530;-66
2021/01/21 09:12:40;;;;;;;5.93;2.40;;;25.80;41.60;;;;;;5090988;27;46186;-63
2021/01/21 09:15:07;;;;;;;5.20;1.73;;;25.90;41.70;;;;;;5085404;27;46019;-63
2021/01/21 09:17:33;;;;;;;5.20;2.10;;;25.90;41.60;;;;;;5098092;27;45398;-61
2021/01/21 09:19:59;;;;;;;4.57;2.70;;;25.90;41.60;;;;;;5088921;27;45672;-61
2021/01/21 09:22:28;;;;;;;4.75;1.83;;;25.90;41.70;;;;;;5086634;27;45825;-63
2021/01/21 09:25:06;;;;;;;4.53;2.17;;;25.90;41.70;;;;;;5082896;27;45496;-56
2021/01/21 09:27:33;;;;;;;3.58;1.63;;;25.90;41.70;;;;;;5099454;27;45452;-58
2021/01/21 09:30:13;;;;;;;3.72;1.73;;;25.90;41.80;;;;;;5107548;27;45556;-59
2021/01/21 09:32:41;;;;;;;3.53;1.42;;;25.90;41.70;;;;;;5103605;27;46079;-58
2021/01/21 09:35:14;;;;;;;3.95;1.52;;;25.80;41.90;;;;;;5095623;27;45702;-59
2021/01/21 09:37:46;;;;;;;4.10;1.52;;;25.80;41.80;;;;;;5099318;27;45438;-59
2021/01/21 09:40:38;;;;;;;4.65;2.20;;;25.80;41.90;;;;;;5099822;27;45418;-58
2021/01/21 09:43:04;;;;;;;4.80;2.00;;;25.80;41.80;;;;;;5098824;27;45276;-63
2021/01/21 09:45:30;;;;;;;3.60;1.55;;;25.70;41.80;;;;;;5090951;27;45493;-65
2021/01/21 09:47:56;;;;;;;3.38;1.67;;;25.70;41.80;;;;;;5091489;27;45358;-66
2021/01/21 09:50:23;;;;;;;4.25;1.92;;;25.70;41.60;;;;;;5091012;27;45650;-65
2021/01/21 09:52:49;;;;;;;5.22;2.20;;;25.70;41.40;;;;;;5090812;27;46264;-62
2021/01/21 09:55:15;;;;;;;4.40;1.95;;;25.70;41.10;;;;;;5089062;27;45446;-66
2021/01/21 09:57:40;;;;;;;3.63;1.90;;;25.70;41.00;;;;;;5100335;27;45465;-69
2021/01/21 10:00:10;;;;;;;3.53;2.00;;;25.70;40.90;;;;;;5087937;27;45579;-59
2021/01/21 10:02:36;;;;;;;3.50;1.92;;;25.70;40.80;;;;;;5107253;27;45482;-63
2021/01/21 10:05:02;;;;;;;5.68;2.10;;;25.70;40.90;;;;;;5090418;27;45381;-59
2021/01/21 10:07:28;;;;;;;4.57;2.33;;;25.80;41.00;;;;;;5108801;27;45471;-62
2021/01/21 10:09:54;;;;;;;4.38;2.13;;;25.80;41.10;;;;;;5089269;27;45378;-59
2021/01/21 10:12:20;;;;;;;4.95;1.88;;;25.80;41.10;;;;;;5101261;27;45663;-60
2021/01/21 10:14:45;;;;;;;4.75;1.60;;;25.80;41.10;;;;;;5085658;27;45594;-61
2021/01/21 10:17:11;;;;;;;5.75;1.92;;;25.80;41.10;;;;;;5083914;27;45638;-61
2021/01/21 10:19:37;;;;;;;5.35;1.98;;;25.80;41.10;;;;;;5086435;27;45388;-60
2021/01/21 10:22:05;;;;;;;3.72;2.13;;;25.80;41.10;;;;;;5085533;28;45469;-63
2021/01/21 10:24:31;;;;;;;4.90;1.83;;;25.80;41.10;;;;;;5087396;27;45829;-64
2021/01/21 10:26:56;;;;;;;5.00;2.28;;;25.80;41.20;;;;;;5088538;27;45426;-60
2021/01/21 10:29:22;;;;;;;19.80;6.22;;;25.80;41.30;;;;;;5103257;27;45506;-67
2021/01/21 10:31:48;;;;;;;30.25;9.50;;;25.70;41.40;;;;;;5087045;27;46122;-63
2021/01/21 10:34:13;;;;;;;30.17;9.13;;;25.60;41.60;;;;;;5087098;27;45363;-63
2021/01/21 10:36:39;;;;;;;35.58;11.07;;;25.50;41.70;;;;;;5096296;27;45591;-57
2021/01/21 10:39:05;;;;;;;29.50;12.40;;;25.50;42.00;;;;;;5084496;27;45667;-58
2021/01/21 10:41:31;;;;;;;41.17;14.30;;;25.40;42.10;;;;;;5085666;27;45540;-60
2021/01/21 10:43:57;;;;;;;32.10;11.13;;;25.40;42.70;;;;;;5096113;27;45422;-62
2021/01/21 10:46:23;;;;;;;39.67;12.32;;;25.30;42.20;;;;;;5087109;27;45541;-62
2021/01/21 10:48:49;;;;;;;34.60;11.07;;;25.30;42.30;;;;;;5089280;27;45641;-62
2021/01/21 10:51:15;;;;;;;35.58;11.60;;;25.20;42.40;;;;;;5087939;27;45360;-58
2021/01/21 10:53:40;;;;;;;32.35;11.27;;;25.20;42.50;;;;;;5090393;27;45308;-57
2021/01/21 10:56:06;;;;;;;28.38;11.25;;;25.20;42.60;;;;;;5086982;27;45454;-58
2021/01/21 10:58:32;;;;;;;29.30;10.85;;;25.10;42.60;;;;;;5091237;27;45312;-59
2021/01/21 11:00:58;;;;;;;36.88;11.80;;;25.10;42.70;;;;;;5087098;28;46390;-58
2021/01/21 11:03:23;;;;;;;36.08;11.90;;;25.10;42.70;;;;;;5087601;27;45404;-60
2021/01/21 11:05:49;;;;;;;27.63;10.38;;;25.10;42.90;;;;;;5106691;27;45372;-61
2021/01/21 11:08:15;;;;;;;27.60;11.02;;;25.10;42.80;;;;;;5075807;28;45494;-61
2021/01/21 11:10:41;;;;;;;27.80;10.40;;;25.00;42.70;;;;;;5087102;28;46201;-59
2021/01/21 11:13:07;;;;;;;26.27;9.45;;;25.10;42.70;;;;;;5081706;27;45374;-61
2021/01/21 11:15:33;;;;;;;27.20;9.82;;;25.20;42.60;;;;;;5075727;27;45366;-61
2021/01/21 11:17:58;;;;;;;30.23;10.43;;;25.10;42.60;;;;;;5087678;27;45681;-61
2021/01/21 11:20:25;;;;;;;27.92;9.25;;;25.00;42.80;;;;;;5089335;27;45227;-62
2021/01/21 11:22:50;;;;;;;25.80;8.95;;;24.90;42.90;;;;;;5073036;27;45307;-62
2021/01/21 11:25:16;;;;;;;21.85;10.30;;;24.90;43.20;;;;;;5090028;27;45410;-62
2021/01/21 11:27:42;;;;;;;26.75;9.90;;;24.80;43.30;;;;;;5090640;27;45623;-62
2021/01/21 11:30:09;;;;;;;20.80;8.93;;;24.80;43.40;;;;;;5084862;27;46312;-62
2021/01/21 11:32:35;;;;;;;23.33;8.02;;;24.70;43.40;;;;;;5107201;27;45376;-62
2021/01/21 11:35:01;;;;;;;22.35;9.13;;;24.60;43.40;;;;;;5089594;27;45314;-63
2021/01/21 11:37:27;;;;;;;18.40;7.93;;;24.60;43.40;;;;;;5082539;27;45612;-71
2021/01/21 11:39:53;;;;;;;19.58;6.50;;;24.60;43.00;;;;;;5078206;27;45663;-63
2021/01/21 11:42:31;;;;;;;17.42;6.38;;;24.60;42.70;;;;;;5126982;27;877624;-68
2021/01/21 11:44:57;;;;;;;16.45;6.70;;;24.70;42.40;;;;;;5110851;27;45593;-65
2021/01/21 11:47:23;;;;;;;16.30;6.30;;;24.80;42.30;;;;;;5107359;27;45433;-70
2021/01/21 11:49:49;;;;;;;16.15;6.38;;;24.80;42.10;;;;;;5114823;27;45586;-63
2021/01/21 11:52:14;;;;;;;16.13;6.72;;;24.90;42.30;;;;;;5092204;27;45382;-67
2021/01/21 11:54:40;;;;;;;12.77;5.88;;;24.90;42.30;;;;;;5113084;27;45375;-68
2021/01/21 11:57:06;;;;;;;20.40;6.68;;;24.90;42.20;;;;;;5110105;27;45440;-66
2021/01/21 11:59:31;;;;;;;16.27;5.75;;;24.90;42.20;;;;;;5110441;27;45460;-64
2021/01/21 12:01:57;;;;;;;19.20;7.28;;;24.90;42.20;;;;;;5119038;27;46368;-64
2021/01/21 12:04:23;;;;;;;23.08;7.55;;;24.80;42.90;;;;;;5109922;27;45321;-64
2021/01/21 12:06:49;;;;;;;21.65;7.10;;;24.70;43.20;;;;;;5117710;27;45564;-64
2021/01/21 12:09:14;;;;;;;18.73;7.95;;;24.60;43.40;;;;;;5096982;27;45711;-64
2021/01/21 12:11:40;;;;;;;18.50;6.75;;;24.50;43.80;;;;;;5103532;27;46584;-71
2021/01/21 12:14:06;;;;;;;18.15;6.95;;;24.60;43.50;;;;;;5105680;27;45738;-69
2021/01/21 12:16:31;;;;;;;23.33;8.13;;;24.60;43.20;;;;;;5105350;27;45434;-68
2021/01/21 12:18:57;;;;;;;17.63;7.40;;;24.70;43.20;;;;;;5102394;27;45512;-68
2021/01/21 12:21:23;;;;;;;16.45;6.65;;;24.70;43.00;;;;;;5094272;27;45556;-72
2021/01/21 12:23:49;;;;;;;19.77;7.80;;;24.70;43.00;;;;;;5117438;27;45357;-67
2021/01/21 12:26:15;;;;;;;19.52;8.20;;;24.70;43.00;;;;;;5108615;27;45349;-69
2021/01/21 12:28:41;;;;;;;16.20;6.43;;;24.70;42.90;;;;;;5103091;27;45347;-66
2021/01/21 12:31:06;;;;;;;14.98;6.78;;;24.70;42.90;;;;;;5097718;27;46232;-69
2021/01/21 12:33:32;;;;;;;15.25;7.05;;;24.70;42.90;;;;;;5102796;27;45288;-73
2021/01/21 12:35:58;;;;;;;18.60;5.97;;;24.70;42.80;;;;;;5101910;27;45453;-64
2021/01/21 12:38:24;;;;;;;15.90;6.90;;;24.70;42.90;;;;;;5105566;27;46015;-63
2021/01/21 12:40:50;;;;;;;13.35;6.35;;;24.60;42.70;;;;;;5105413;27;45651;-63
2021/01/21 12:43:16;;;;;;;19.88;7.30;;;24.50;42.60;;;;;;5104207;27;45876;-63
2021/01/21 12:45:44;;;;;;;14.50;6.38;;;24.50;42.70;;;;;;5123002;27;45340;-63
2021/01/21 12:48:10;;;;;;;15.68;5.80;;;24.40;42.80;;;;;;5110226;27;45495;-70
2021/01/21 12:50:36;;;;;;;17.20;5.82;;;24.40;42.90;;;;;;5117012;27;46384;-67